sensor_id;sensor_type;location;lat;lon;timestamp;P1;durP1;ratioP1;P2;durP2;ratioP2
15677;SDS011;7939;50.814;6.368;2022-11-28T00:02:20;4.50;;;3.35;;
15677;SDS011;7939;50.814;6.368;2022-11-28T00:04:50;3.88;;;3.38;;
15677;SDS011;7939;50.814;6.368;2022-11-28T00:07:17;6.60;;;3.72;;
15677;SDS011;7939;50.814;6.368;2022-11-28T00:09:44;3.80;;;3.40;;
15677;SDS011;7939;50.814;6.368;2022-11-28T00:12:10;3.45;;;2.63;;
15677;SDS011;7939;50.814;6.368;2022-11-28T00:14:37;4.82;;;3.50;;
15677;SDS011;7939;50.814;6.368;2022-11-28T00:17:03;3.60;;;3.15;;
15677;SDS011;7939;50.814;6.368;2022-11-28T00:19:30;4.07;;;3.50;;
15677;SDS011;7939;50.814;6.368;2022-11-28T00:21:58;4.00;;;3.42;;
15677;SDS011;7939;50.814;6.368;2022-11-28T00:24:24;4.72;;;3.42;;
15677;SDS011;7939;50.814;6.368;2022-11-28T00:26:51;4.75;;;3.13;;
15677;SDS011;7939;50.814;6.368;2022-11-28T00:29:17;4.80;;;3.47;;
15677;SDS011;7939;50.814;6.368;2022-11-28T00:31:44;5.10;;;3.58;;
15677;SDS011;7939;50.814;6.368;2022-11-28T00:34:11;4.10;;;3.20;;
15677;SDS011;7939;50.814;6.368;2022-11-28T00:36:39;4.68;;;3.80;;
15677;SDS011;7939;50.814;6.368;2022-11-28T00:39:09;3.78;;;3.00;;
15677;SDS011;7939;50.814;6.368;2022-11-28T00:41:35;4.65;;;3.40;;
15677;SDS011;7939;50.814;6.368;2022-11-28T00:44:02;3.50;;;3.17;;
15677;SDS011;7939;50.814;6.368;2022-11-28T00:46:28;4.13;;;3.00;;
15677;SDS011;7939;50.814;6.368;2022-11-28T00:48:56;4.35;;;3.17;;
15677;SDS011;7939;50.814;6.368;2022-11-28T00:51:23;5.40;;;3.40;;
15677;SDS011;7939;50.814;6.368;2022-11-28T00:53:52;4.25;;;3.55;;
15677;SDS011;7939;50.814;6.368;2022-11-28T00:56:22;5.35;;;3.50;;
15677;SDS011;7939;50.814;6.368;2022-11-28T00:58:49;5.18;;;3.28;;
15677;SDS011;7939;50.814;6.368;2022-11-28T01:01:17;5.18;;;3.53;;
15677;SDS011;7939;50.814;6.368;2022-11-28T01:03:46;5.00;;;3.67;;
15677;SDS011;7939;50.814;6.368;2022-11-28T01:06:18;3.92;;;3.35;;
15677;SDS011;7939;50.814;6.368;2022-11-28T01:08:46;3.45;;;3.15;;
15677;SDS011;7939;50.814;6.368;2022-11-28T01:11:13;4.10;;;3.10;;
15677;SDS011;7939;50.814;6.368;2022-11-28T01:13:41;3.60;;;2.90;;
15677;SDS011;7939;50.814;6.368;2022-11-28T01:16:07;3.28;;;2.97;;
15677;SDS011;7939;50.814;6.368;2022-11-28T01:18:34;3.92;;;2.97;;
15677;SDS011;7939;50.814;6.368;2022-11-28T01:21:01;3.60;;;3.03;;
15677;SDS011;7939;50.814;6.368;2022-11-28T01:23:28;4.75;;;3.13;;
15677;SDS011;7939;50.814;6.368;2022-11-28T01:25:55;4.30;;;3.30;;
15677;SDS011;7939;50.814;6.368;2022-11-28T01:28:21;3.78;;;3.08;;
15677;SDS011;7939;50.814;6.368;2022-11-28T01:30:49;4.80;;;3.10;;
15677;SDS011;7939;50.814;6.368;2022-11-28T01:33:16;4.80;;;2.95;;
15677;SDS011;7939;50.814;6.368;2022-11-28T01:35:52;3.22;;;2.88;;
15677;SDS011;7939;50.814;6.368;2022-11-28T01:38:19;3.90;;;2.90;;
15677;SDS011;7939;50.814;6.368;2022-11-28T01:40:45;3.25;;;2.95;;
15677;SDS011;7939;50.814;6.368;2022-11-28T01:43:12;3.90;;;2.83;;
15677;SDS011;7939;50.814;6.368;2022-11-28T01:45:39;3.10;;;2.80;;
15677;SDS011;7939;50.814;6.368;2022-11-28T01:48:07;4.68;;;2.92;;
15677;SDS011;7939;50.814;6.368;2022-11-28T01:50:37;4.95;;;3.20;;
15677;SDS011;7939;50.814;6.368;2022-11-28T01:53:05;3.05;;;2.55;;
15677;SDS011;7939;50.814;6.368;2022-11-28T01:55:37;2.90;;;2.60;;
15677;SDS011;7939;50.814;6.368;2022-11-28T01:58:08;3.42;;;2.75;;
15677;SDS011;7939;50.814;6.368;2022-11-28T02:00:36;4.03;;;3.15;;
15677;SDS011;7939;50.814;6.368;2022-11-28T02:03:04;4.43;;;2.42;;
15677;SDS011;7939;50.814;6.368;2022-11-28T02:05:35;3.35;;;2.95;;
15677;SDS011;7939;50.814;6.368;2022-11-28T02:08:02;3.13;;;2.75;;
15677;SDS011;7939;50.814;6.368;2022-11-28T02:10:31;2.55;;;2.20;;
15677;SDS011;7939;50.814;6.368;2022-11-28T02:13:14;2.72;;;2.50;;
15677;SDS011;7939;50.814;6.368;2022-11-28T02:16:01;5.30;;;2.50;;
15677;SDS011;7939;50.814;6.368;2022-11-28T02:18:42;3.63;;;2.85;;
15677;SDS011;7939;50.814;6.368;2022-11-28T02:21:21;3.50;;;2.85;;
15677;SDS011;7939;50.814;6.368;2022-11-28T02:27:10;2.70;;;2.47;;
15677;SDS011;7939;50.814;6.368;2022-11-28T02:29:50;3.17;;;2.60;;
15677;SDS011;7939;50.814;6.368;2022-11-28T02:32:33;2.92;;;2.63;;
15677;SDS011;7939;50.814;6.368;2022-11-28T02:35:07;3.97;;;2.97;;
15677;SDS011;7939;50.814;6.368;2022-11-28T02:37:43;2.90;;;2.60;;
15677;SDS011;7939;50.814;6.368;2022-11-28T02:40:21;3.28;;;2.65;;
15677;SDS011;7939;50.814;6.368;2022-11-28T02:42:53;2.78;;;2.55;;
15677;SDS011;7939;50.814;6.368;2022-11-28T02:45:31;3.78;;;2.70;;
15677;SDS011;7939;50.814;6.368;2022-11-28T02:48:06;3.05;;;2.60;;
15677;SDS011;7939;50.814;6.368;2022-11-28T02:50:38;3.28;;;2.97;;
15677;SDS011;7939;50.814;6.368;2022-11-28T02:53:11;2.90;;;2.35;;
15677;SDS011;7939;50.814;6.368;2022-11-28T02:55:42;3.40;;;2.35;;
15677;SDS011;7939;50.814;6.368;2022-11-28T02:58:09;2.30;;;2.10;;
15677;SDS011;7939;50.814;6.368;2022-11-28T03:00:37;4.20;;;2.63;;
15677;SDS011;7939;50.814;6.368;2022-11-28T03:06:06;4.10;;;2.35;;
15677;SDS011;7939;50.814;6.368;2022-11-28T03:08:46;2.35;;;2.15;;
15677;SDS011;7939;50.814;6.368;2022-11-28T03:11:31;2.67;;;2.47;;
15677;SDS011;7939;50.814;6.368;2022-11-28T03:14:12;2.28;;;2.08;;
15677;SDS011;7939;50.814;6.368;2022-11-28T03:16:47;2.90;;;1.98;;
15677;SDS011;7939;50.814;6.368;2022-11-28T03:19:19;3.92;;;2.45;;
15677;SDS011;7939;50.814;6.368;2022-11-28T03:21:54;2.00;;;1.80;;
15677;SDS011;7939;50.814;6.368;2022-11-28T03:24:31;2.75;;;1.92;;
15677;SDS011;7939;50.814;6.368;2022-11-28T03:27:04;2.65;;;2.10;;
15677;SDS011;7939;50.814;6.368;2022-11-28T03:29:36;2.65;;;2.40;;
15677;SDS011;7939;50.814;6.368;2022-11-28T03:32:05;2.60;;;2.05;;
15677;SDS011;7939;50.814;6.368;2022-11-28T03:34:37;2.47;;;2.22;;
15677;SDS011;7939;50.814;6.368;2022-11-28T03:37:10;2.60;;;2.20;;
15677;SDS011;7939;50.814;6.368;2022-11-28T03:39:42;4.70;;;2.60;;
15677;SDS011;7939;50.814;6.368;2022-11-28T03:42:13;3.08;;;2.10;;
15677;SDS011;7939;50.814;6.368;2022-11-28T03:44:45;2.40;;;2.20;;
15677;SDS011;7939;50.814;6.368;2022-11-28T03:47:15;2.33;;;2.13;;
15677;SDS011;7939;50.814;6.368;2022-11-28T03:49:50;3.33;;;2.45;;
15677;SDS011;7939;50.814;6.368;2022-11-28T03:52:21;5.72;;;2.67;;
15677;SDS011;7939;50.814;6.368;2022-11-28T03:54:51;3.15;;;2.67;;
15677;SDS011;7939;50.814;6.368;2022-11-28T03:57:22;4.75;;;3.20;;
15677;SDS011;7939;50.814;6.368;2022-11-28T03:59:52;4.32;;;2.65;;
15677;SDS011;7939;50.814;6.368;2022-11-28T04:02:25;4.40;;;3.55;;
15677;SDS011;7939;50.814;6.368;2022-11-28T04:04:58;3.15;;;2.83;;
15677;SDS011;7939;50.814;6.368;2022-11-28T04:07:31;3.80;;;3.28;;
15677;SDS011;7939;50.814;6.368;2022-11-28T04:10:05;3.30;;;2.90;;
15677;SDS011;7939;50.814;6.368;2022-11-28T04:12:41;3.92;;;3.35;;
15677;SDS011;7939;50.814;6.368;2022-11-28T04:15:16;3.92;;;3.10;;
15677;SDS011;7939;50.814;6.368;2022-11-28T04:17:49;4.50;;;2.88;;
15677;SDS011;7939;50.814;6.368;2022-11-28T04:20:24;3.88;;;3.20;;
15677;SDS011;7939;50.814;6.368;2022-11-28T04:22:56;4.57;;;3.30;;
15677;SDS011;7939;50.814;6.368;2022-11-28T04:25:26;4.28;;;2.90;;
15677;SDS011;7939;50.814;6.368;2022-11-28T04:27:58;5.05;;;3.42;;
15677;SDS011;7939;50.814;6.368;2022-11-28T04:30:29;2.72;;;2.53;;
15677;SDS011;7939;50.814;6.368;2022-11-28T04:32:57;3.47;;;2.90;;
15677;SDS011;7939;50.814;6.368;2022-11-28T04:35:29;4.32;;;3.55;;
15677;SDS011;7939;50.814;6.368;2022-11-28T04:37:59;5.68;;;3.58;;
15677;SDS011;7939;50.814;6.368;2022-11-28T04:40:29;4.22;;;2.85;;
15677;SDS011;7939;50.814;6.368;2022-11-28T04:42:59;3.72;;;3.13;;
15677;SDS011;7939;50.814;6.368;2022-11-28T04:45:28;3.72;;;2.70;;
15677;SDS011;7939;50.814;6.368;2022-11-28T04:47:59;5.15;;;2.55;;
15677;SDS011;7939;50.814;6.368;2022-11-28T04:50:29;3.38;;;3.08;;
15677;SDS011;7939;50.814;6.368;2022-11-28T04:52:59;2.65;;;2.38;;
15677;SDS011;7939;50.814;6.368;2022-11-28T04:55:32;3.40;;;2.70;;
15677;SDS011;7939;50.814;6.368;2022-11-28T04:58:03;3.85;;;2.95;;
15677;SDS011;7939;50.814;6.368;2022-11-28T05:00:34;3.17;;;2.67;;
15677;SDS011;7939;50.814;6.368;2022-11-28T05:03:03;4.13;;;2.67;;
15677;SDS011;7939;50.814;6.368;2022-11-28T05:05:33;3.67;;;2.50;;
15677;SDS011;7939;50.814;6.368;2022-11-28T05:08:08;3.40;;;2.40;;
15677;SDS011;7939;50.814;6.368;2022-11-28T05:10:34;2.65;;;2.22;;
15677;SDS011;7939;50.814;6.368;2022-11-28T05:13:01;2.53;;;2.33;;
15677;SDS011;7939;50.814;6.368;2022-11-28T05:15:28;2.80;;;2.25;;
15677;SDS011;7939;50.814;6.368;2022-11-28T05:17:55;3.83;;;2.55;;
15677;SDS011;7939;50.814;6.368;2022-11-28T05:20:21;2.17;;;1.98;;
15677;SDS011;7939;50.814;6.368;2022-11-28T05:22:49;2.88;;;2.20;;
15677;SDS011;7939;50.814;6.368;2022-11-28T05:25:16;3.47;;;2.40;;
15677;SDS011;7939;50.814;6.368;2022-11-28T05:27:42;4.50;;;3.05;;
15677;SDS011;7939;50.814;6.368;2022-11-28T05:30:09;4.25;;;3.05;;
15677;SDS011;7939;50.814;6.368;2022-11-28T05:32:37;3.80;;;3.33;;
15677;SDS011;7939;50.814;6.368;2022-11-28T05:35:04;10.40;;;6.57;;
15677;SDS011;7939;50.814;6.368;2022-11-28T05:37:31;7.70;;;3.90;;
15677;SDS011;7939;50.814;6.368;2022-11-28T05:40:00;6.65;;;3.08;;
15677;SDS011;7939;50.814;6.368;2022-11-28T05:42:26;3.30;;;2.65;;
15677;SDS011;7939;50.814;6.368;2022-11-28T05:44:56;3.80;;;3.10;;
15677;SDS011;7939;50.814;6.368;2022-11-28T05:47:23;3.90;;;3.47;;
15677;SDS011;7939;50.814;6.368;2022-11-28T05:49:50;2.97;;;2.67;;
15677;SDS011;7939;50.814;6.368;2022-11-28T05:52:16;3.33;;;2.42;;
15677;SDS011;7939;50.814;6.368;2022-11-28T05:54:43;4.38;;;2.97;;
15677;SDS011;7939;50.814;6.368;2022-11-28T05:57:11;4.00;;;2.95;;
15677;SDS011;7939;50.814;6.368;2022-11-28T05:59:37;3.45;;;2.75;;
15677;SDS011;7939;50.814;6.368;2022-11-28T06:02:04;3.40;;;2.67;;
15677;SDS011;7939;50.814;6.368;2022-11-28T06:04:30;2.90;;;2.70;;
15677;SDS011;7939;50.814;6.368;2022-11-28T06:06:57;4.68;;;3.05;;
15677;SDS011;7939;50.814;6.368;2022-11-28T06:09:24;4.28;;;3.10;;
15677;SDS011;7939;50.814;6.368;2022-11-28T06:11:50;6.35;;;3.70;;
15677;SDS011;7939;50.814;6.368;2022-11-28T06:14:18;4.45;;;3.50;;
15677;SDS011;7939;50.814;6.368;2022-11-28T06:16:45;5.10;;;3.40;;
15677;SDS011;7939;50.814;6.368;2022-11-28T06:19:11;4.95;;;3.63;;
15677;SDS011;7939;50.814;6.368;2022-11-28T06:21:38;7.88;;;3.50;;
15677;SDS011;7939;50.814;6.368;2022-11-28T06:24:05;3.92;;;3.03;;
15677;SDS011;7939;50.814;6.368;2022-11-28T06:26:32;4.72;;;3.55;;
15677;SDS011;7939;50.814;6.368;2022-11-28T06:28:59;5.05;;;4.15;;
15677;SDS011;7939;50.814;6.368;2022-11-28T06:31:27;6.78;;;3.50;;
15677;SDS011;7939;50.814;6.368;2022-11-28T06:33:54;3.42;;;3.05;;
15677;SDS011;7939;50.814;6.368;2022-11-28T06:36:21;2.72;;;2.38;;
15677;SDS011;7939;50.814;6.368;2022-11-28T06:38:49;3.00;;;2.70;;
15677;SDS011;7939;50.814;6.368;2022-11-28T06:41:16;3.42;;;2.78;;
15677;SDS011;7939;50.814;6.368;2022-11-28T06:43:44;4.03;;;2.67;;
15677;SDS011;7939;50.814;6.368;2022-11-28T06:46:11;3.55;;;2.88;;
15677;SDS011;7939;50.814;6.368;2022-11-28T06:48:39;7.57;;;3.63;;
15677;SDS011;7939;50.814;6.368;2022-11-28T06:51:06;5.20;;;3.70;;
15677;SDS011;7939;50.814;6.368;2022-11-28T06:53:33;4.32;;;3.53;;
15677;SDS011;7939;50.814;6.368;2022-11-28T06:56:03;4.85;;;3.22;;
15677;SDS011;7939;50.814;6.368;2022-11-28T06:58:30;3.90;;;3.50;;
15677;SDS011;7939;50.814;6.368;2022-11-28T07:00:56;6.53;;;4.25;;
15677;SDS011;7939;50.814;6.368;2022-11-28T07:03:29;6.78;;;4.50;;
15677;SDS011;7939;50.814;6.368;2022-11-28T07:05:59;5.25;;;3.83;;
15677;SDS011;7939;50.814;6.368;2022-11-28T07:08:25;4.78;;;3.30;;
15677;SDS011;7939;50.814;6.368;2022-11-28T07:10:52;4.47;;;3.63;;
15677;SDS011;7939;50.814;6.368;2022-11-28T07:13:18;5.28;;;3.60;;
15677;SDS011;7939;50.814;6.368;2022-11-28T07:15:47;5.55;;;3.60;;
15677;SDS011;7939;50.814;6.368;2022-11-28T07:18:13;4.15;;;3.60;;
15677;SDS011;7939;50.814;6.368;2022-11-28T07:20:40;3.97;;;3.30;;
15677;SDS011;7939;50.814;6.368;2022-11-28T07:23:08;6.38;;;3.75;;
15677;SDS011;7939;50.814;6.368;2022-11-28T07:25:34;3.95;;;3.10;;
15677;SDS011;7939;50.814;6.368;2022-11-28T07:28:01;5.85;;;3.83;;
15677;SDS011;7939;50.814;6.368;2022-11-28T07:30:27;5.80;;;3.80;;
15677;SDS011;7939;50.814;6.368;2022-11-28T07:32:54;5.30;;;3.58;;
15677;SDS011;7939;50.814;6.368;2022-11-28T07:35:20;5.20;;;3.75;;
15677;SDS011;7939;50.814;6.368;2022-11-28T07:37:47;4.95;;;3.70;;
15677;SDS011;7939;50.814;6.368;2022-11-28T07:40:15;4.78;;;3.50;;
15677;SDS011;7939;50.814;6.368;2022-11-28T07:42:43;4.40;;;3.40;;
15677;SDS011;7939;50.814;6.368;2022-11-28T07:45:10;4.82;;;3.72;;
15677;SDS011;7939;50.814;6.368;2022-11-28T07:47:38;4.85;;;3.67;;
15677;SDS011;7939;50.814;6.368;2022-11-28T07:50:05;5.18;;;3.50;;
15677;SDS011;7939;50.814;6.368;2022-11-28T07:52:32;4.80;;;3.53;;
15677;SDS011;7939;50.814;6.368;2022-11-28T07:54:59;5.57;;;3.80;;
15677;SDS011;7939;50.814;6.368;2022-11-28T07:57:27;4.60;;;3.40;;
15677;SDS011;7939;50.814;6.368;2022-11-28T07:59:55;5.40;;;3.78;;
15677;SDS011;7939;50.814;6.368;2022-11-28T08:02:22;5.28;;;3.65;;
15677;SDS011;7939;50.814;6.368;2022-11-28T08:04:48;6.25;;;3.55;;
15677;SDS011;7939;50.814;6.368;2022-11-28T08:07:15;5.63;;;3.60;;
15677;SDS011;7939;50.814;6.368;2022-11-28T08:09:41;4.47;;;3.70;;
15677;SDS011;7939;50.814;6.368;2022-11-28T08:12:08;4.55;;;3.42;;
15677;SDS011;7939;50.814;6.368;2022-11-28T08:14:36;4.75;;;3.17;;
15677;SDS011;7939;50.814;6.368;2022-11-28T08:17:02;3.25;;;2.95;;
15677;SDS011;7939;50.814;6.368;2022-11-28T08:19:29;4.40;;;4.00;;
15677;SDS011;7939;50.814;6.368;2022-11-28T08:21:55;5.10;;;3.40;;
15677;SDS011;7939;50.814;6.368;2022-11-28T08:24:22;3.92;;;2.78;;
15677;SDS011;7939;50.814;6.368;2022-11-28T08:26:48;3.75;;;3.15;;
15677;SDS011;7939;50.814;6.368;2022-11-28T08:29:15;3.75;;;3.38;;
15677;SDS011;7939;50.814;6.368;2022-11-28T08:31:43;4.10;;;3.15;;
15677;SDS011;7939;50.814;6.368;2022-11-28T08:34:10;4.47;;;3.42;;
15677;SDS011;7939;50.814;6.368;2022-11-28T08:36:37;3.33;;;2.83;;
15677;SDS011;7939;50.814;6.368;2022-11-28T08:39:04;3.53;;;2.90;;
15677;SDS011;7939;50.814;6.368;2022-11-28T08:41:31;3.13;;;2.72;;
15677;SDS011;7939;50.814;6.368;2022-11-28T08:43:57;2.50;;;2.20;;
15677;SDS011;7939;50.814;6.368;2022-11-28T08:46:24;4.40;;;3.45;;
15677;SDS011;7939;50.814;6.368;2022-11-28T08:48:52;2.92;;;2.40;;
15677;SDS011;7939;50.814;6.368;2022-11-28T08:51:19;4.10;;;2.97;;
15677;SDS011;7939;50.814;6.368;2022-11-28T08:53:49;3.00;;;2.47;;
15677;SDS011;7939;50.814;6.368;2022-11-28T08:56:16;2.42;;;2.08;;
15677;SDS011;7939;50.814;6.368;2022-11-28T08:58:43;3.17;;;2.10;;
15677;SDS011;7939;50.814;6.368;2022-11-28T09:01:14;2.45;;;2.25;;
15677;SDS011;7939;50.814;6.368;2022-11-28T09:03:42;2.60;;;2.22;;
15677;SDS011;7939;50.814;6.368;2022-11-28T09:06:10;3.25;;;2.72;;
15677;SDS011;7939;50.814;6.368;2022-11-28T09:08:36;4.05;;;2.40;;
15677;SDS011;7939;50.814;6.368;2022-11-28T09:11:04;2.47;;;2.27;;
15677;SDS011;7939;50.814;6.368;2022-11-28T09:13:32;2.33;;;2.13;;
15677;SDS011;7939;50.814;6.368;2022-11-28T09:15:58;2.03;;;1.80;;
15677;SDS011;7939;50.814;6.368;2022-11-28T09:18:25;3.08;;;1.77;;
15677;SDS011;7939;50.814;6.368;2022-11-28T09:20:55;1.98;;;1.77;;
15677;SDS011;7939;50.814;6.368;2022-11-28T09:23:24;1.45;;;1.35;;
15677;SDS011;7939;50.814;6.368;2022-11-28T09:25:51;2.40;;;1.70;;
15677;SDS011;7939;50.814;6.368;2022-11-28T09:28:17;2.30;;;1.52;;
15677;SDS011;7939;50.814;6.368;2022-11-28T09:30:44;1.90;;;1.80;;
15677;SDS011;7939;50.814;6.368;2022-11-28T09:33:11;1.90;;;1.55;;
15677;SDS011;7939;50.814;6.368;2022-11-28T09:35:37;1.92;;;1.40;;
15677;SDS011;7939;50.814;6.368;2022-11-28T09:38:04;1.80;;;1.70;;
15677;SDS011;7939;50.814;6.368;2022-11-28T09:40:34;3.10;;;1.88;;
15677;SDS011;7939;50.814;6.368;2022-11-28T09:43:02;2.97;;;2.00;;
15677;SDS011;7939;50.814;6.368;2022-11-28T09:45:34;2.35;;;1.67;;
15677;SDS011;7939;50.814;6.368;2022-11-28T09:48:01;3.03;;;1.83;;
15677;SDS011;7939;50.814;6.368;2022-11-28T09:50:37;1.92;;;1.73;;
15677;SDS011;7939;50.814;6.368;2022-11-28T09:53:10;2.22;;;1.58;;
15677;SDS011;7939;50.814;6.368;2022-11-28T09:55:45;2.05;;;1.90;;
15677;SDS011;7939;50.814;6.368;2022-11-28T09:58:17;1.80;;;1.70;;
15677;SDS011;7939;50.814;6.368;2022-11-28T10:00:50;1.95;;;1.75;;
15677;SDS011;7939;50.814;6.368;2022-11-28T10:03:31;3.10;;;1.80;;
15677;SDS011;7939;50.814;6.368;2022-11-28T10:06:06;1.80;;;1.70;;
15677;SDS011;7939;50.814;6.368;2022-11-28T10:08:43;1.83;;;1.60;;
15677;SDS011;7939;50.814;6.368;2022-11-28T10:11:26;3.05;;;1.67;;
15677;SDS011;7939;50.814;6.368;2022-11-28T10:14:06;1.70;;;1.60;;
15677;SDS011;7939;50.814;6.368;2022-11-28T10:17:00;1.73;;;1.63;;
15677;SDS011;7939;50.814;6.368;2022-11-28T10:19:36;2.33;;;2.13;;
15677;SDS011;7939;50.814;6.368;2022-11-28T10:22:09;4.35;;;1.55;;
15677;SDS011;7939;50.814;6.368;2022-11-28T10:24:42;1.50;;;1.40;;
15677;SDS011;7939;50.814;6.368;2022-11-28T10:27:15;1.85;;;1.40;;
15677;SDS011;7939;50.814;6.368;2022-11-28T10:29:44;1.58;;;1.48;;
15677;SDS011;7939;50.814;6.368;2022-11-28T10:32:16;1.40;;;1.30;;
15677;SDS011;7939;50.814;6.368;2022-11-28T10:34:47;1.80;;;1.48;;
15677;SDS011;7939;50.814;6.368;2022-11-28T10:37:19;1.80;;;1.35;;
15677;SDS011;7939;50.814;6.368;2022-11-28T10:39:49;1.25;;;1.15;;
15677;SDS011;7939;50.814;6.368;2022-11-28T10:42:19;2.30;;;1.38;;
15677;SDS011;7939;50.814;6.368;2022-11-28T10:44:57;1.67;;;1.58;;
15677;SDS011;7939;50.814;6.368;2022-11-28T10:47:46;1.65;;;1.25;;
15677;SDS011;7939;50.814;6.368;2022-11-28T10:50:28;1.40;;;1.30;;
15677;SDS011;7939;50.814;6.368;2022-11-28T10:53:03;4.35;;;1.70;;
15677;SDS011;7939;50.814;6.368;2022-11-28T10:55:42;1.50;;;1.40;;
15677;SDS011;7939;50.814;6.368;2022-11-28T10:58:21;1.48;;;1.38;;
15677;SDS011;7939;50.814;6.368;2022-11-28T11:00:51;1.60;;;1.50;;
15677;SDS011;7939;50.814;6.368;2022-11-28T11:03:21;2.75;;;1.63;;
15677;SDS011;7939;50.814;6.368;2022-11-28T11:05:52;5.15;;;1.88;;
15677;SDS011;7939;50.814;6.368;2022-11-28T11:08:19;2.47;;;2.00;;
15677;SDS011;7939;50.814;6.368;2022-11-28T11:10:48;1.98;;;1.77;;
15677;SDS011;7939;50.814;6.368;2022-11-28T11:13:18;2.05;;;1.58;;
15677;SDS011;7939;50.814;6.368;2022-11-28T11:15:50;1.70;;;1.60;;
15677;SDS011;7939;50.814;6.368;2022-11-28T11:18:23;1.50;;;1.20;;
15677;SDS011;7939;50.814;6.368;2022-11-28T11:21:05;1.67;;;1.40;;
15677;SDS011;7939;50.814;6.368;2022-11-28T11:23:33;1.98;;;1.30;;
15677;SDS011;7939;50.814;6.368;2022-11-28T11:26:00;1.40;;;1.30;;
15677;SDS011;7939;50.814;6.368;2022-11-28T11:28:38;1.98;;;1.73;;
15677;SDS011;7939;50.814;6.368;2022-11-28T11:31:15;1.52;;;1.42;;
15677;SDS011;7939;50.814;6.368;2022-11-28T11:33:45;1.58;;;1.40;;
15677;SDS011;7939;50.814;6.368;2022-11-28T11:36:22;1.20;;;1.20;;
15677;SDS011;7939;50.814;6.368;2022-11-28T11:38:51;1.73;;;1.63;;
15677;SDS011;7939;50.814;6.368;2022-11-28T11:41:29;1.90;;;1.50;;
15677;SDS011;7939;50.814;6.368;2022-11-28T11:43:57;2.28;;;1.55;;
15677;SDS011;7939;50.814;6.368;2022-11-28T11:46:59;2.00;;;1.50;;
15677;SDS011;7939;50.814;6.368;2022-11-28T11:49:31;1.92;;;1.45;;
15677;SDS011;7939;50.814;6.368;2022-11-28T11:52:01;1.83;;;1.45;;
15677;SDS011;7939;50.814;6.368;2022-11-28T11:54:29;1.48;;;1.38;;
15677;SDS011;7939;50.814;6.368;2022-11-28T11:56:56;1.50;;;1.40;;
15677;SDS011;7939;50.814;6.368;2022-11-28T11:59:25;1.40;;;1.30;;
15677;SDS011;7939;50.814;6.368;2022-11-28T12:01:59;1.30;;;1.20;;
15677;SDS011;7939;50.814;6.368;2022-11-28T12:04:32;1.30;;;1.20;;
15677;SDS011;7939;50.814;6.368;2022-11-28T12:07:03;1.25;;;1.15;;
15677;SDS011;7939;50.814;6.368;2022-11-28T12:09:34;2.20;;;1.35;;
15677;SDS011;7939;50.814;6.368;2022-11-28T12:12:08;1.42;;;1.35;;
15677;SDS011;7939;50.814;6.368;2022-11-28T12:14:39;1.40;;;1.30;;
15677;SDS011;7939;50.814;6.368;2022-11-28T12:17:16;1.08;;;1.08;;
15677;SDS011;7939;50.814;6.368;2022-11-28T12:19:56;1.83;;;1.00;;
15677;SDS011;7939;50.814;6.368;2022-11-28T12:22:34;0.90;;;0.90;;
15677;SDS011;7939;50.814;6.368;2022-11-28T12:25:09;1.25;;;1.15;;
15677;SDS011;7939;50.814;6.368;2022-11-28T12:27:49;1.00;;;1.00;;
15677;SDS011;7939;50.814;6.368;2022-11-28T12:30:28;1.33;;;1.20;;
15677;SDS011;7939;50.814;6.368;2022-11-28T12:33:09;1.92;;;1.10;;
15677;SDS011;7939;50.814;6.368;2022-11-28T12:35:47;1.30;;;1.20;;
15677;SDS011;7939;50.814;6.368;2022-11-28T12:38:28;1.15;;;1.15;;
15677;SDS011;7939;50.814;6.368;2022-11-28T12:41:05;1.25;;;1.17;;
15677;SDS011;7939;50.814;6.368;2022-11-28T12:43:48;1.52;;;1.30;;
15677;SDS011;7939;50.814;6.368;2022-11-28T12:46:26;1.20;;;1.10;;
15677;SDS011;7939;50.814;6.368;2022-11-28T12:49:02;1.30;;;1.20;;
15677;SDS011;7939;50.814;6.368;2022-11-28T12:51:42;1.85;;;1.27;;
15677;SDS011;7939;50.814;6.368;2022-11-28T12:54:23;1.77;;;1.10;;
15677;SDS011;7939;50.814;6.368;2022-11-28T12:56:59;1.67;;;1.30;;
15677;SDS011;7939;50.814;6.368;2022-11-28T12:59:36;1.27;;;1.17;;
15677;SDS011;7939;50.814;6.368;2022-11-28T13:02:14;1.20;;;1.10;;
15677;SDS011;7939;50.814;6.368;2022-11-28T13:07:46;1.85;;;1.70;;
15677;SDS011;7939;50.814;6.368;2022-11-28T13:10:24;1.55;;;1.45;;
15677;SDS011;7939;50.814;6.368;2022-11-28T13:12:56;1.20;;;1.20;;
15677;SDS011;7939;50.814;6.368;2022-11-28T13:15:34;1.40;;;1.25;;
15677;SDS011;7939;50.814;6.368;2022-11-28T13:18:13;1.35;;;1.25;;
15677;SDS011;7939;50.814;6.368;2022-11-28T13:20:48;1.60;;;1.40;;
15677;SDS011;7939;50.814;6.368;2022-11-28T13:23:20;1.95;;;1.33;;
15677;SDS011;7939;50.814;6.368;2022-11-28T13:25:53;1.40;;;1.15;;
15677;SDS011;7939;50.814;6.368;2022-11-28T13:28:28;1.60;;;1.50;;
15677;SDS011;7939;50.814;6.368;2022-11-28T13:31:02;1.45;;;1.35;;
15677;SDS011;7939;50.814;6.368;2022-11-28T13:33:39;1.63;;;1.50;;
15677;SDS011;7939;50.814;6.368;2022-11-28T13:36:15;2.55;;;1.90;;
15677;SDS011;7939;50.814;6.368;2022-11-28T13:38:52;1.60;;;1.50;;
15677;SDS011;7939;50.814;6.368;2022-11-28T13:41:24;2.00;;;1.80;;
15677;SDS011;7939;50.814;6.368;2022-11-28T13:44:01;1.52;;;1.40;;
15677;SDS011;7939;50.814;6.368;2022-11-28T13:46:33;1.75;;;1.65;;
15677;SDS011;7939;50.814;6.368;2022-11-28T13:49:07;1.67;;;1.52;;
15677;SDS011;7939;50.814;6.368;2022-11-28T13:51:35;1.85;;;1.65;;
15677;SDS011;7939;50.814;6.368;2022-11-28T13:57:18;4.47;;;2.78;;
15677;SDS011;7939;50.814;6.368;2022-11-28T13:59:49;4.25;;;2.60;;
15677;SDS011;7939;50.814;6.368;2022-11-28T14:02:19;3.58;;;2.38;;
15677;SDS011;7939;50.814;6.368;2022-11-28T14:04:50;2.97;;;2.40;;
15677;SDS011;7939;50.814;6.368;2022-11-28T14:07:21;3.38;;;2.70;;
15677;SDS011;7939;50.814;6.368;2022-11-28T14:09:55;3.88;;;2.58;;
15677;SDS011;7939;50.814;6.368;2022-11-28T14:12:49;4.00;;;2.75;;
15677;SDS011;7939;50.814;6.368;2022-11-28T14:15:30;6.53;;;2.97;;
15677;SDS011;7939;50.814;6.368;2022-11-28T14:18:07;5.13;;;3.40;;
15677;SDS011;7939;50.814;6.368;2022-11-28T14:20:48;5.68;;;3.65;;
15677;SDS011;7939;50.814;6.368;2022-11-28T14:23:24;9.00;;;8.15;;
15677;SDS011;7939;50.814;6.368;2022-11-28T14:25:58;13.43;;;11.30;;
15677;SDS011;7939;50.814;6.368;2022-11-28T14:28:26;8.20;;;6.22;;
15677;SDS011;7939;50.814;6.368;2022-11-28T14:31:00;9.80;;;5.50;;
15677;SDS011;7939;50.814;6.368;2022-11-28T14:33:31;5.63;;;3.60;;
15677;SDS011;7939;50.814;6.368;2022-11-28T14:36:05;8.70;;;4.43;;
15677;SDS011;7939;50.814;6.368;2022-11-28T14:38:58;8.32;;;6.13;;
15677;SDS011;7939;50.814;6.368;2022-11-28T14:41:27;5.63;;;4.30;;
15677;SDS011;7939;50.814;6.368;2022-11-28T14:43:54;8.65;;;5.55;;
15677;SDS011;7939;50.814;6.368;2022-11-28T14:47:05;9.48;;;7.25;;
15677;SDS011;7939;50.814;6.368;2022-11-28T14:49:38;6.65;;;4.70;;
15677;SDS011;7939;50.814;6.368;2022-11-28T14:52:16;8.27;;;6.35;;
15677;SDS011;7939;50.814;6.368;2022-11-28T14:54:48;11.98;;;7.72;;
15677;SDS011;7939;50.814;6.368;2022-11-28T14:57:16;8.85;;;5.63;;
15677;SDS011;7939;50.814;6.368;2022-11-28T14:59:45;7.82;;;5.20;;
15677;SDS011;7939;50.814;6.368;2022-11-28T15:05:27;10.05;;;6.13;;
15677;SDS011;7939;50.814;6.368;2022-11-28T15:08:18;12.50;;;9.20;;
15677;SDS011;7939;50.814;6.368;2022-11-28T15:10:56;16.13;;;12.02;;
15677;SDS011;7939;50.814;6.368;2022-11-28T15:13:40;14.10;;;10.85;;
15677;SDS011;7939;50.814;6.368;2022-11-28T15:16:14;10.30;;;8.00;;
15677;SDS011;7939;50.814;6.368;2022-11-28T15:18:44;12.70;;;9.90;;
15677;SDS011;7939;50.814;6.368;2022-11-28T15:21:16;13.13;;;11.75;;
15677;SDS011;7939;50.814;6.368;2022-11-28T15:23:45;10.88;;;9.90;;
15677;SDS011;7939;50.814;6.368;2022-11-28T15:26:19;6.47;;;5.10;;
15677;SDS011;7939;50.814;6.368;2022-11-28T15:28:46;9.00;;;5.38;;
15677;SDS011;7939;50.814;6.368;2022-11-28T15:31:19;12.18;;;7.45;;
15677;SDS011;7939;50.814;6.368;2022-11-28T15:33:48;9.73;;;5.65;;
15677;SDS011;7939;50.814;6.368;2022-11-28T15:36:20;7.05;;;4.97;;
15677;SDS011;7939;50.814;6.368;2022-11-28T15:38:52;11.37;;;7.10;;
15677;SDS011;7939;50.814;6.368;2022-11-28T15:41:20;16.23;;;14.68;;